Flight Track Log - Related Links

Times and Time Zones

All times are in EDT time to prevent confusion due to time zone crossing. See the SKW5576 flight status page for this flight to view local times or setup timezone preferences in your user account.


Time Position Orientation Groundspeed Altitude Reporting Facility
EDT Latitude Longitude Course Direction KTS MPH feet Rate Location/Type
Sat 07:22:32 PM 41.4153 -81.8347 86° East 156 180 2,000  Level Cleveland Center
Sat 07:23:14 PM 41.4178 -81.7903 86° East 189 217 3,300 1,918 Climbing Cleveland Center
Sat 07:24:09 PM 41.4186 -81.7128 89° East 266 306 5,100 2,465 Climbing Cleveland Center
Sat 07:25:23 PM 41.3653 -81.6206 128° Southeast 307 353 8,600 2,687 Climbing Cleveland Center
Sat 07:26:23 PM 41.3119 -81.5258 127° Southeast 307 353 11,100 2,400 Climbing Cleveland Center
Sat 07:27:23 PM 41.2522 -81.4311 130° Southeast 321 369 13,400 2,500 Climbing Cleveland Center
Sat 07:28:23 PM 41.1822 -81.3253 131° Southeast 342 394 16,100 2,380 Climbing Cleveland Center
Sat 07:29:24 PM 41.1139 -81.2197 131° Southeast 358 412 18,200 1,900 Climbing Cleveland Center
Sat 07:30:23 PM 41.0142 -81.1692 159° South 365 420 19,900 1,700 Climbing Cleveland Center
Sat 07:31:24 PM 40.9017 -81.1297 165° South 393 452 21,600 1,800 Climbing Cleveland Center
Sat 07:32:23 PM 40.7997 -81.0933 165° South 417 480 23,500 1,933 Climbing Cleveland Center
Sat 07:34:24 PM 40.5728 -81.0094 164° South 425 489 27,400 1,667 Climbing Cleveland Center
Sat 07:35:23 PM 40.4711 -80.9242 147° Southeast 425 489 28,500 807 Climbing Cleveland Center
Sat 07:36:23 PM 40.3756 -80.8119 138° Southeast 442 509 29,000 250 Climbing Cleveland Center
Sat 07:37:23 PM 40.2694 -80.6892 139° Southeast 475 547 29,000  Level Cleveland Center
Sat 07:38:23 PM 40.1692 -80.5694 138° Southeast 486 559 29,000  Level Cleveland Center
Sat 07:39:24 PM 40.0733 -80.4556 138° Southeast 481 554 29,000  Level Cleveland Center
Sat 07:40:24 PM 39.9753 -80.3392 138° Southeast 476 548 29,000  Level Cleveland Center
Sat 07:41:24 PM 39.8789 -80.2261 138° Southeast 476 548 29,000  Level Cleveland Center
Sat 07:42:24 PM 39.7764 -80.1131 140° Southeast 471 542 29,000  Level Cleveland Center
Sat 07:43:24 PM 39.6947 -80.0031 134° Southeast 471 542 29,000 -556 Level Cleveland Center
Sat 07:44:55 PM 39.5994 -79.7717 118° Southeast 439 505 27,600 -795 Descending Washington Center
Sat 07:45:55 PM 39.5397 -79.6308 119° Southeast 439 505 27,000 -500 Descending Washington Center
Sat 07:46:55 PM 39.4925 -79.4856 113° Southeast 439 505 26,600 -595 Descending Washington Center
Sat 07:47:56 PM 39.4639 -79.3308 103° East 439 505 25,800 -1,131 Descending Washington Center
Sat 07:48:57 PM 39.4356 -79.1656 102° East 439 505 24,300 -1,815 Descending Washington Center
Sat 07:49:55 PM 39.4067 -79.0189 104° East 426 490 22,200 -2,218 Descending Washington Center
Sat 07:50:56 PM 39.3794 -78.8728 104° East 421 484 19,900 -2,182 Descending Washington Center
Sat 07:51:56 PM 39.3539 -78.7319 103° East 416 479 17,800 -2,200 Descending Washington Center
Sat 07:52:56 PM 39.3303 -78.5967 103° East 405 466 15,500 -2,168 Descending Washington Center
Sat 07:53:55 PM 39.3064 -78.4644 103° East 386 444 13,500 -1,650 Descending Washington Center
Sat 07:54:56 PM 39.2778 -78.3506 108° East 357 411 12,200 -1,230 Descending Washington Center
Sat 07:55:57 PM 39.2258 -78.2522 124° Southeast 331 381 11,000 -1,190 Descending Washington Center
Sat 07:56:57 PM 39.1758 -78.1592 125° Southeast 325 374 9,800 -1,424 Descending Washington Center
Sat 07:57:55 PM 39.1278 -78.0639 123° Southeast 320 368 8,200 -1,361 Descending Washington Center
Sat 07:58:56 PM 39.0794 -77.9767 126° Southeast 314 361 7,100 -590 Descending Washington Center
Sat 07:59:57 PM 39.0311 -77.8869 125° Southeast 314 361 7,000 -504 Descending Washington Center
Sat 08:00:55 PM 38.9869 -77.8000 123° Southeast 303 349 6,100 -454 Descending Washington Center
Sat 08:01:56 PM 38.9614 -77.7139 111° Southeast 290 334 6,100 -154 Level Washington Center
Sat 08:03:31 PM 38.8833 -77.5833 128° Southeast 297 342 5,700 -765 Descending Potomac TRACON
Sat 08:04:25 PM 38.8167 -77.5833 180° South 283 326 4,200 -1,368 Descending Potomac TRACON
Sat 08:05:25 PM 38.7500 -77.5333 150° Southeast 288 331 3,100 -600 Descending Potomac TRACON
Sat 08:06:25 PM 38.7833 -77.4667 57° Northeast 211 243 3,000 -250 Descending Potomac TRACON
Sat 08:07:25 PM 38.8333 -77.4667 360° North 158 182 2,600 -619 Descending Potomac TRACON
Sat 08:08:31 PM 38.8667 -77.4667 360° North 122 140 1,700 -762 Descending Potomac TRACON
Sat 08:09:31 PM 38.9000 -77.4667 360° North 123 142 1,000 -700 Descending Potomac TRACON

Login

Don't have an account? Register now (free) for customized features, flight alerts, and more!